Terminal Aerodrome Forecast
Issued by NWS Duluth, MN

Home | Current Version | Previous Version | Text Only | Print | Product List | Glossary On
Versions: 1 2 3 4 5 6 7 8 9 10 11 12 13 14 15 16 17 18 19 20 21 22 23 24
000
FTUS43 KDLH 012334
TAFDLH
TAF
KDLH 012334Z 0200/0224 34008KT P6SM VCSH OVC016
     FM020400 33006KT P6SM VCSH BKN008 OVC014
     FM021400 32006KT P6SM OVC018
     FM022000 31005KT P6SM OVC025=

USA.gov is the U.S. government's official web portal to all federal, state and local government web resources and services.